createdAt,value
2023-05-19T00:00:37.570Z,14.34
2023-05-19T00:03:54.833Z,14.43
2023-05-19T00:07:16.488Z,14.36
2023-05-19T00:10:37.636Z,14.43
2023-05-19T00:13:55.819Z,14.50
2023-05-19T00:17:16.756Z,14.65
2023-05-19T00:20:44.777Z,14.75
2023-05-19T00:24:07.654Z,14.71
2023-05-19T00:27:18.085Z,14.61
2023-05-19T00:30:27.340Z,14.70
2023-05-19T00:33:33.990Z,14.69
2023-05-19T00:36:45.109Z,14.40
2023-05-19T00:40:12.595Z,14.33
2023-05-19T00:43:32.577Z,14.22
2023-05-19T00:47:01.554Z,14.39
2023-05-19T00:50:17.508Z,14.27
2023-05-19T00:53:40.131Z,14.61
2023-05-19T00:56:55.419Z,14.70
2023-05-19T01:00:06.250Z,14.68
2023-05-19T01:03:14.770Z,14.67
2023-05-19T01:06:26.191Z,14.66
2023-05-19T01:09:35.647Z,14.48
2023-05-19T01:12:51.669Z,14.51
2023-05-19T01:16:31.442Z,14.56
2023-05-19T01:20:11.467Z,14.50
2023-05-19T01:23:55.638Z,14.52
2023-05-19T01:27:26.623Z,14.48
2023-05-19T01:30:51.109Z,14.41
2023-05-19T01:34:00.156Z,14.33
2023-05-19T01:37:23.332Z,14.24
2023-05-19T01:40:44.706Z,14.16
2023-05-19T01:44:07.554Z,14.32
2023-05-19T01:47:27.814Z,14.43
2023-05-19T01:50:52.070Z,14.42
2023-05-19T01:54:03.472Z,14.43
2023-05-19T01:57:42.432Z,14.23
2023-05-19T02:01:25.581Z,13.81
2023-05-19T02:05:09.796Z,14.26
2023-05-19T02:09:06.601Z,14.38
2023-05-19T02:12:49.386Z,14.29
2023-05-19T02:16:09.580Z,14.40
2023-05-19T02:19:24.718Z,14.37
2023-05-19T02:22:29.220Z,14.32
2023-05-19T02:26:02.379Z,14.44
2023-05-19T02:29:22.271Z,14.35
2023-05-19T02:32:34.391Z,14.40
2023-05-19T02:35:44.841Z,14.45
2023-05-19T02:39:05.673Z,14.46
2023-05-19T02:42:24.372Z,14.40
2023-05-19T02:45:43.251Z,14.37
2023-05-19T02:48:47.324Z,14.33
2023-05-19T02:51:54.295Z,14.35
2023-05-19T02:55:25.226Z,14.30
2023-05-19T02:58:46.473Z,14.30
2023-05-19T03:02:19.235Z,14.28
2023-05-19T03:05:58.194Z,14.14
2023-05-19T03:09:14.124Z,14.24
2023-05-19T03:12:37.637Z,14.29
2023-05-19T03:15:44.060Z,14.29
2023-05-19T03:18:49.448Z,14.26
2023-05-19T03:22:02.364Z,14.30
2023-05-19T03:25:36.079Z,14.19
2023-05-19T03:29:00.294Z,14.00
2023-05-19T03:32:15.149Z,14.14
2023-05-19T03:35:35.243Z,14.21
2023-05-19T03:39:04.815Z,14.21
2023-05-19T03:42:13.468Z,14.09
2023-05-19T03:45:33.966Z,14.14
2023-05-19T03:48:53.519Z,14.26
2023-05-19T03:52:55.043Z,14.53
2023-05-19T03:56:18.567Z,14.64
2023-05-19T03:59:28.068Z,14.50
2023-05-19T04:02:38.285Z,14.55
2023-05-19T04:06:27.628Z,14.58
2023-05-19T04:10:19.453Z,14.69
2023-05-19T04:13:45.374Z,14.78
2023-05-19T04:16:57.109Z,14.88
2023-05-19T04:20:34.089Z,14.89
2023-05-19T04:24:19.998Z,14.87
2023-05-19T04:27:45.339Z,14.92
2023-05-19T04:31:07.360Z,14.78
2023-05-19T04:34:25.001Z,14.69
2023-05-19T04:38:34.930Z,15.02
2023-05-19T04:41:44.581Z,15.18
2023-05-19T04:44:52.253Z,15.22
2023-05-19T04:48:20.562Z,15.26
2023-05-19T04:51:55.740Z,15.33
2023-05-19T04:55:35.238Z,15.39
2023-05-19T04:59:20.005Z,15.68
2023-05-19T05:02:58.130Z,15.34
2023-05-19T05:06:26.790Z,15.48
2023-05-19T05:09:42.995Z,15.61
2023-05-19T05:13:03.857Z,15.64
2023-05-19T05:16:26.988Z,15.75
2023-05-19T05:19:31.004Z,15.71
2023-05-19T05:22:34.577Z,15.66
2023-05-19T05:25:50.514Z,15.77
2023-05-19T05:28:55.012Z,15.62
2023-05-19T05:32:12.176Z,15.91
2023-05-19T05:35:30.374Z,16.44
2023-05-19T05:38:34.829Z,16.21
2023-05-19T05:41:38.469Z,16.53
2023-05-19T05:44:57.094Z,16.37
2023-05-19T05:48:12.891Z,16.64
2023-05-19T05:51:35.944Z,16.73
2023-05-19T06:00:12.898Z,16.41
2023-05-19T06:03:46.657Z,16.37
2023-05-19T06:07:01.400Z,16.38
2023-05-19T06:10:10.990Z,16.18
2023-05-19T06:13:26.189Z,16.50
2023-05-19T06:16:44.193Z,16.49
2023-05-19T06:20:43.482Z,16.24
2023-05-19T06:24:08.592Z,16.84
2023-05-19T06:27:43.387Z,16.61
2023-05-19T06:30:53.350Z,17.00
2023-05-19T06:38:53.105Z,17.17
2023-05-19T06:42:10.083Z,17.13
2023-05-19T06:45:55.652Z,17.07
2023-05-19T06:49:29.725Z,17.26
2023-05-19T07:02:33.773Z,17.94
2023-05-19T07:06:19.132Z,18.13
2023-05-19T07:09:22.722Z,18.37
2023-05-19T07:12:33.698Z,18.51
2023-05-19T07:16:14.576Z,18.37
2023-05-19T07:20:16.205Z,18.53
2023-05-19T07:23:50.082Z,18.62
2023-05-19T07:27:16.223Z,18.43
2023-05-19T07:30:42.135Z,18.68
2023-05-19T07:34:22.635Z,18.66
2023-05-19T07:37:32.562Z,18.26
2023-05-19T07:41:30.713Z,18.81
2023-05-19T07:45:36.410Z,19.02
2023-05-19T07:49:56.324Z,18.83
2023-05-19T07:53:47.251Z,18.66
2023-05-19T07:57:14.735Z,19.14
2023-05-19T08:00:39.453Z,19.05
2023-05-19T08:04:37.538Z,19.66
2023-05-19T08:07:44.098Z,19.18
2023-05-19T08:11:43.250Z,19.60
2023-05-19T08:15:22.862Z,19.95
2023-05-19T08:18:33.879Z,20.60
2023-05-19T08:22:04.002Z,20.73
2023-05-19T08:25:19.938Z,20.39
2023-05-19T08:29:06.548Z,19.87
2023-05-19T08:38:18.108Z,19.88
2023-05-19T08:41:47.622Z,19.51
2023-05-19T08:45:18.777Z,19.59
2023-05-19T08:48:31.504Z,19.45
2023-05-19T08:52:00.783Z,19.69
2023-05-19T08:55:47.977Z,20.01
2023-05-19T08:59:46.741Z,20.12
2023-05-19T09:03:38.497Z,20.00
2023-05-19T09:06:51.723Z,19.71
2023-05-19T09:10:16.128Z,20.33
2023-05-19T09:13:42.822Z,20.32
2023-05-19T09:16:51.352Z,20.59
2023-05-19T09:20:03.505Z,20.43
2023-05-19T09:23:17.363Z,20.36
2023-05-19T09:26:47.114Z,20.62
2023-05-19T09:30:21.952Z,20.54
2023-05-19T09:38:08.430Z,21.29
2023-05-19T09:41:15.120Z,21.62
2023-05-19T09:44:33.971Z,21.62
2023-05-19T09:48:08.133Z,21.51
2023-05-19T09:51:30.517Z,20.53
2023-05-19T09:54:37.508Z,21.01
2023-05-19T09:57:41.579Z,21.20
2023-05-19T10:00:48.316Z,21.22
2023-05-19T10:04:06.584Z,21.05
2023-05-19T10:07:31.145Z,21.40
2023-05-19T10:10:54.371Z,21.28
2023-05-19T10:14:08.404Z,21.63
2023-05-19T10:17:28.282Z,21.55
2023-05-19T10:20:38.511Z,21.34
2023-05-19T10:23:42.345Z,21.50
2023-05-19T10:26:58.177Z,21.46
2023-05-19T10:30:09.479Z,21.58
2023-05-19T10:33:30.911Z,21.60
2023-05-19T10:36:50.108Z,21.78
2023-05-19T10:39:53.872Z,22.62
2023-05-19T10:43:23.922Z,23.03
2023-05-19T10:46:33.729Z,22.73
2023-05-19T10:49:37.217Z,23.47
2023-05-19T10:52:44.790Z,23.35
2023-05-19T10:56:03.272Z,22.87
2023-05-19T10:59:33.550Z,22.90
2023-05-19T11:02:44.372Z,22.33
2023-05-19T11:06:04.181Z,22.40
2023-05-19T11:09:34.172Z,22.61
2023-05-19T11:12:46.614Z,23.39
2023-05-19T11:15:50.382Z,23.38
2023-05-19T11:19:06.388Z,22.88
2023-05-19T11:22:19.959Z,22.46
2023-05-19T11:25:51.593Z,23.10
2023-05-19T11:28:59.172Z,22.98
2023-05-19T11:32:11.439Z,22.79
2023-05-19T11:35:36.016Z,22.81
2023-05-19T11:38:57.869Z,23.68
2023-05-19T11:42:20.965Z,23.67
2023-05-19T11:45:39.143Z,23.72
2023-05-19T11:48:58.929Z,23.73
2023-05-19T11:52:18.188Z,24.83
2023-05-19T11:56:03.459Z,24.68
2023-05-19T11:59:08.331Z,25.52
2023-05-19T12:02:28.053Z,25.28
2023-05-19T12:05:52.136Z,26.46
2023-05-19T12:09:07.024Z,26.92
2023-05-19T12:12:24.869Z,28.42
2023-05-19T12:15:48.291Z,27.11
2023-05-19T12:19:05.113Z,27.45
2023-05-19T12:22:26.855Z,25.62
2023-05-19T12:25:55.089Z,24.96
2023-05-19T12:29:17.973Z,26.13
2023-05-19T12:32:25.831Z,27.90
2023-05-19T12:35:52.427Z,27.86
2023-05-19T12:39:11.871Z,28.46
2023-05-19T12:42:37.943Z,29.28
2023-05-19T12:46:04.899Z,29.87
2023-05-19T12:49:26.028Z,27.57
2023-05-19T12:52:56.656Z,27.70
2023-05-19T12:56:15.246Z,29.14
2023-05-19T12:59:38.351Z,30.18
2023-05-19T13:03:10.245Z,29.10
2023-05-19T13:06:13.416Z,28.64
2023-05-19T13:09:38.998Z,30.03
2023-05-19T13:12:51.975Z,30.61
2023-05-19T13:15:56.662Z,31.73
2023-05-19T13:19:06.220Z,31.00
2023-05-19T13:22:26.930Z,32.20
2023-05-19T13:25:52.389Z,32.01
2023-05-19T13:29:08.780Z,32.13
2023-05-19T13:32:29.560Z,30.84
2023-05-19T13:35:39.449Z,29.64
2023-05-19T13:38:49.377Z,27.86
2023-05-19T13:41:52.557Z,29.48
2023-05-19T13:45:03.225Z,31.57
2023-05-19T13:48:12.183Z,29.88
2023-05-19T13:51:15.956Z,29.08
2023-05-19T13:54:29.578Z,29.78
2023-05-19T13:57:44.993Z,29.94
2023-05-19T14:01:07.838Z,29.07
2023-05-19T14:04:28.387Z,30.39
2023-05-19T14:07:49.524Z,32.09
2023-05-19T14:11:12.627Z,30.93
2023-05-19T14:14:34.607Z,32.57
2023-05-19T14:17:44.409Z,34.35
2023-05-19T14:20:54.236Z,35.58
2023-05-19T14:24:02.988Z,32.88
2023-05-19T14:27:13.957Z,31.77
2023-05-19T14:30:29.900Z,31.08
2023-05-19T14:33:58.566Z,29.78
2023-05-19T14:37:14.927Z,31.38
2023-05-19T14:40:23.491Z,31.64
2023-05-19T14:43:27.038Z,31.36
2023-05-19T14:46:30.095Z,31.31
2023-05-19T14:49:45.752Z,31.23
2023-05-19T14:53:14.576Z,31.52
2023-05-19T14:56:35.702Z,30.10
2023-05-19T14:59:55.639Z,29.35
2023-05-19T15:03:25.566Z,28.75
2023-05-19T15:06:52.258Z,28.97
2023-05-19T15:10:05.643Z,28.88
2023-05-19T15:13:27.866Z,28.63
2023-05-19T15:16:50.524Z,28.89
2023-05-19T15:20:13.516Z,28.57
2023-05-19T15:23:33.437Z,28.41
2023-05-19T15:26:53.545Z,28.13
2023-05-19T15:30:16.463Z,28.62
2023-05-19T15:33:39.714Z,29.03
2023-05-19T15:36:56.570Z,28.95
2023-05-19T15:40:04.647Z,27.97
2023-05-19T15:43:11.538Z,27.46
2023-05-19T15:46:28.152Z,26.97
2023-05-19T15:49:43.628Z,26.20
2023-05-19T15:52:56.912Z,26.28
2023-05-19T15:56:13.508Z,25.80
2023-05-19T15:59:17.193Z,26.27
2023-05-19T16:02:24.246Z,26.00
2023-05-19T16:05:31.050Z,25.95
2023-05-19T16:08:38.785Z,25.85
2023-05-19T16:11:45.827Z,25.80
2023-05-19T16:15:08.947Z,25.88
2023-05-19T16:18:30.433Z,25.83
2023-05-19T16:21:44.984Z,25.68
2023-05-19T16:25:09.871Z,25.92
2023-05-19T16:28:38.577Z,25.77
2023-05-19T16:31:45.749Z,25.74
2023-05-19T16:34:57.736Z,25.72
2023-05-19T16:38:06.950Z,25.63
2023-05-19T16:41:13.350Z,25.59
2023-05-19T16:44:29.707Z,25.66
2023-05-19T16:47:36.147Z,25.77
2023-05-19T16:51:03.501Z,25.74
2023-05-19T16:54:21.468Z,25.64
2023-05-19T16:57:31.363Z,25.39
2023-05-19T17:00:58.326Z,25.28
2023-05-19T17:04:17.933Z,25.20
2023-05-19T17:07:28.078Z,25.14
2023-05-19T17:11:02.558Z,25.26
2023-05-19T17:14:25.849Z,25.05
2023-05-19T17:17:33.290Z,24.81
2023-05-19T17:20:54.263Z,24.35
2023-05-19T17:24:14.850Z,23.98
2023-05-19T17:27:31.649Z,23.78
2023-05-19T17:30:57.782Z,23.72
2023-05-19T17:34:39.051Z,23.54
2023-05-19T17:38:00.325Z,23.41
2023-05-19T17:41:32.523Z,23.36
2023-05-19T17:45:15.865Z,23.31
2023-05-19T17:48:41.075Z,23.39
2023-05-19T17:52:00.326Z,23.13
2023-05-19T17:55:29.346Z,23.25
2023-05-19T17:58:49.888Z,23.00
2023-05-19T18:02:17.913Z,23.28
2023-05-19T18:05:52.401Z,23.06
2023-05-19T18:09:49.076Z,23.03
2023-05-19T18:13:54.343Z,22.75
2023-05-19T18:17:07.507Z,22.62
2023-05-19T18:20:17.804Z,22.50
2023-05-19T18:23:28.480Z,22.41
2023-05-19T18:26:55.618Z,22.26
2023-05-19T18:30:29.000Z,22.05
2023-05-19T18:33:49.795Z,21.83
2023-05-19T18:37:12.998Z,21.75
2023-05-19T18:40:38.999Z,21.77
2023-05-19T18:44:02.087Z,21.72
2023-05-19T18:47:09.599Z,21.58
2023-05-19T18:50:27.542Z,21.52
2023-05-19T18:53:52.377Z,21.42
2023-05-19T18:57:00.051Z,21.32
2023-05-19T19:00:29.395Z,21.08
2023-05-19T19:03:52.077Z,21.05
2023-05-19T19:06:55.365Z,20.96
2023-05-19T19:10:12.399Z,20.97
2023-05-19T19:13:34.605Z,20.72
2023-05-19T19:16:58.007Z,20.60
2023-05-19T19:20:32.064Z,20.62
2023-05-19T19:23:36.242Z,20.61
2023-05-19T19:26:40.457Z,20.64
2023-05-19T19:30:01.321Z,20.55
2023-05-19T19:33:20.625Z,20.41
2023-05-19T19:36:33.429Z,20.20
2023-05-19T19:40:08.054Z,20.20
2023-05-19T19:43:25.729Z,20.08
2023-05-19T19:46:52.225Z,20.03
2023-05-19T19:50:32.037Z,20.08
2023-05-19T19:53:47.087Z,20.16
2023-05-19T19:56:55.124Z,20.20
2023-05-19T20:00:21.473Z,20.17
2023-05-19T20:03:37.483Z,20.19
2023-05-19T20:07:04.101Z,20.14
2023-05-19T20:10:45.215Z,20.08
2023-05-19T20:14:15.249Z,20.06
2023-05-19T20:17:19.195Z,19.81
2023-05-19T20:20:47.448Z,19.93
2023-05-19T20:24:23.986Z,19.70
2023-05-19T20:27:38.525Z,19.75
2023-05-19T20:30:43.028Z,19.87
2023-05-19T20:33:51.310Z,19.86
2023-05-19T20:37:05.115Z,19.66
2023-05-19T20:40:39.412Z,19.63
2023-05-19T20:43:55.466Z,19.42
2023-05-19T20:47:33.058Z,19.53
2023-05-19T20:51:14.805Z,19.65
2023-05-19T20:55:28.984Z,19.49
2023-05-19T20:59:24.543Z,19.40
2023-05-19T21:03:08.182Z,19.25
2023-05-19T21:06:52.225Z,19.39
2023-05-19T21:10:18.474Z,19.31
2023-05-19T21:13:22.836Z,19.10
2023-05-19T21:16:29.460Z,19.20
2023-05-19T21:19:35.209Z,19.15
2023-05-19T21:22:40.981Z,19.08
2023-05-19T21:25:45.393Z,19.13
2023-05-19T21:29:08.659Z,18.94
2023-05-19T21:32:42.651Z,18.78
2023-05-19T21:36:01.543Z,18.77
2023-05-19T21:39:24.657Z,18.73
2023-05-19T21:42:48.666Z,18.73
2023-05-19T21:46:11.687Z,18.70
2023-05-19T21:49:33.863Z,18.62
2023-05-19T21:52:38.560Z,18.60
2023-05-19T21:56:01.563Z,18.53
2023-05-19T21:59:38.846Z,18.37
2023-05-19T22:02:58.908Z,18.26
2023-05-19T22:06:19.853Z,18.21
2023-05-19T22:09:49.070Z,18.32
2023-05-19T22:13:07.387Z,18.25
2023-05-19T22:16:28.841Z,17.99
2023-05-19T22:19:32.709Z,18.19
2023-05-19T22:22:37.119Z,18.19
2023-05-19T22:25:51.664Z,17.80
2023-05-19T22:29:01.164Z,17.95
2023-05-19T22:32:18.525Z,17.96
2023-05-19T22:35:27.864Z,18.03
2023-05-19T22:38:34.081Z,18.00
2023-05-19T22:41:39.966Z,18.01
2023-05-19T22:44:43.882Z,17.90
2023-05-19T22:47:55.973Z,17.89
2023-05-19T22:51:09.078Z,17.87
2023-05-19T22:54:19.361Z,17.82
2023-05-19T22:57:42.553Z,17.77
2023-05-19T23:01:05.453Z,17.49
2023-05-19T23:04:32.518Z,17.18
2023-05-19T23:07:54.793Z,17.26
2023-05-19T23:11:17.402Z,16.88
2023-05-19T23:14:43.400Z,16.79
2023-05-19T23:17:48.536Z,17.03
2023-05-19T23:20:52.329Z,17.08
2023-05-19T23:23:57.461Z,17.06
2023-05-19T23:27:04.910Z,17.17
2023-05-19T23:30:10.083Z,17.19
2023-05-19T23:33:17.938Z,16.75
2023-05-19T23:36:35.498Z,16.95
2023-05-19T23:39:57.509Z,17.09
2023-05-19T23:43:19.533Z,17.15
2023-05-19T23:46:35.814Z,16.93
2023-05-19T23:49:57.459Z,16.91
2023-05-19T23:53:20.286Z,16.96
2023-05-19T23:56:43.350Z,16.84
